Time;durP1;ratioP1;P1;durP2;ratioP2;P2;SDS_P1;SDS_P2;PMS_P1;PMS_P2;Temp;Humidity;BMP_temperature;BMP_pressure;BME280_temperature;BME280_humidity;BME280_pressure;Samples;Min_cycle;Max_cycle;Signal;HPM_P1;HPM_P2
2022/05/18 00:00:16;;;;;;;3.08;0.63;;;13.20;99.90;;;;;;4975067;28;20030;-95
2022/05/18 00:02:42;;;;;;;1.77;0.52;;;13.10;99.90;;;;;;4966991;28;20117;-92
2022/05/18 00:05:08;;;;;;;1.05;0.50;;;13.00;99.90;;;;;;4969359;28;20018;-95
2022/05/18 00:07:37;;;;;;;2.33;0.50;;;13.00;99.90;;;;;;4968201;28;20023;-95
2022/05/18 00:10:03;;;;;;;2.25;0.65;;;13.00;99.90;;;;;;4970909;28;20171;-92
2022/05/18 00:12:29;;;;;;;3.85;0.70;;;13.00;99.90;;;;;;4968560;28;20019;-95
2022/05/18 00:14:56;;;;;;;2.30;0.75;;;12.90;99.90;;;;;;4971553;28;20022;-96
2022/05/18 00:17:28;;;;;;;3.40;0.80;;;12.80;99.90;;;;;;4971251;28;20019;-95
2022/05/18 00:19:53;;;;;;;1.33;0.57;;;12.80;99.90;;;;;;4961088;28;20040;-95
2022/05/18 00:22:22;;;;;;;1.63;0.57;;;12.80;99.90;;;;;;4970752;28;20102;-94
2022/05/18 00:24:48;;;;;;;1.08;0.50;;;12.70;99.90;;;;;;4966708;28;20023;-95
2022/05/18 00:27:14;;;;;;;2.83;0.60;;;12.70;99.90;;;;;;4966807;28;20093;-94
2022/05/18 00:29:39;;;;;;;4.80;0.60;;;12.70;99.90;;;;;;4970144;28;20034;-94
2022/05/18 00:32:05;;;;;;;4.68;0.88;;;12.60;99.90;;;;;;4987235;28;20030;-94
2022/05/18 00:34:31;;;;;;;2.00;0.60;;;12.60;99.90;;;;;;4977507;28;20054;-92
2022/05/18 00:36:57;;;;;;;4.68;0.80;;;12.60;99.90;;;;;;4983001;28;20027;-90
2022/05/18 00:39:22;;;;;;;4.40;0.88;;;12.50;99.90;;;;;;4987457;28;20034;-96
2022/05/18 00:41:48;;;;;;;2.83;0.90;;;12.50;99.90;;;;;;4976263;28;20027;-95
2022/05/18 00:44:14;;;;;;;3.42;0.60;;;12.40;99.90;;;;;;4968706;28;20460;-95
2022/05/18 00:46:39;;;;;;;2.67;1.13;;;12.40;99.90;;;;;;4964626;28;20019;-96
2022/05/18 00:49:07;;;;;;;2.90;0.88;;;12.30;99.90;;;;;;4963536;28;20042;-95
2022/05/18 00:51:48;;;;;;;1.15;0.60;;;12.30;99.90;;;;;;4962727;28;20037;-94
2022/05/18 00:54:22;;;;;;;4.63;0.65;;;12.20;99.90;;;;;;4981340;28;20027;-92
2022/05/18 00:57:00;;;;;;;2.63;0.50;;;12.20;99.90;;;;;;4945986;29;20039;-95
2022/05/18 00:59:33;;;;;;;5.88;0.98;;;12.10;99.90;;;;;;4947502;29;20034;-94
2022/05/18 01:02:00;;;;;;;2.67;0.90;;;12.10;99.90;;;;;;4947344;29;20031;-96
2022/05/18 01:04:26;;;;;;;2.42;0.82;;;12.10;99.90;;;;;;4949765;29;20027;-95
2022/05/18 01:07:12;;;;;;;2.83;0.70;;;12.10;99.90;;;;;;4950897;29;20036;-96
2022/05/18 01:09:43;;;;;;;2.83;0.60;;;12.00;99.90;;;;;;4949235;29;20070;-94
2022/05/18 01:12:12;;;;;;;2.17;0.70;;;12.00;99.90;;;;;;4946078;29;20039;-93
2022/05/18 01:15:00;;;;;;;1.70;0.70;;;12.00;99.90;;;;;;4954782;28;20031;-93
2022/05/18 01:17:33;;;;;;;2.53;0.90;;;12.00;99.90;;;;;;4974763;28;20481;-89
2022/05/18 01:20:01;;;;;;;2.38;0.55;;;12.00;99.90;;;;;;4964416;28;20054;-89
2022/05/18 01:22:42;;;;;;;3.33;0.60;;;11.90;99.90;;;;;;4956000;29;20039;-95
2022/05/18 01:25:46;;;;;;;4.43;0.80;;;11.90;99.90;;;;;;4962590;28;20055;-88
2022/05/18 01:28:13;;;;;;;3.97;0.70;;;11.90;99.90;;;;;;4964319;28;20046;-90
2022/05/18 01:30:43;;;;;;;6.97;1.00;;;11.90;99.90;;;;;;4965068;28;20030;-89
2022/05/18 01:33:09;;;;;;;3.63;0.82;;;11.90;99.90;;;;;;4964871;28;20015;-90
2022/05/18 01:35:41;;;;;;;6.20;1.45;;;11.90;99.90;;;;;;4964850;28;20027;-91
2022/05/18 01:38:07;;;;;;;6.40;1.10;;;11.80;99.90;;;;;;4959891;28;20035;-95
2022/05/18 01:40:49;;;;;;;3.72;0.90;;;11.80;99.90;;;;;;4955933;29;20027;-89
2022/05/18 01:43:23;;;;;;;4.63;1.33;;;11.90;99.90;;;;;;4961051;28;20063;-95
2022/05/18 01:45:55;;;;;;;5.10;1.00;;;11.80;99.90;;;;;;4962077;28;20031;-95
2022/05/18 01:48:24;;;;;;;7.05;1.30;;;11.80;99.90;;;;;;4961013;29;20103;-94
2022/05/18 01:50:51;;;;;;;3.60;0.93;;;11.80;99.90;;;;;;4964611;28;20020;-90
2022/05/18 01:53:18;;;;;;;4.38;1.00;;;11.80;99.90;;;;;;4964640;28;20023;-89
2022/05/18 01:55:45;;;;;;;5.32;0.75;;;11.70;99.90;;;;;;4976016;28;20042;-88
2022/05/18 01:58:12;;;;;;;3.15;1.00;;;11.60;99.90;;;;;;4983969;28;20036;-90
2022/05/18 02:00:38;;;;;;;5.18;0.93;;;11.60;99.90;;;;;;5000598;28;20030;-92
2022/05/18 02:03:04;;;;;;;7.70;0.93;;;11.50;99.90;;;;;;4982844;28;20023;-89
2022/05/18 02:05:30;;;;;;;6.53;0.73;;;11.50;99.90;;;;;;4983719;28;20033;-90
2022/05/18 02:07:57;;;;;;;6.28;1.13;;;11.40;99.90;;;;;;4983323;28;20018;-89
2022/05/18 02:10:23;;;;;;;6.45;1.08;;;11.40;99.90;;;;;;4983078;28;20095;-90
2022/05/18 02:12:50;;;;;;;5.30;1.10;;;11.40;99.90;;;;;;4983143;28;20035;-91
2022/05/18 02:15:16;;;;;;;3.13;0.82;;;11.40;99.90;;;;;;4983190;28;20034;-92
2022/05/18 02:17:43;;;;;;;3.22;0.80;;;11.40;99.90;;;;;;4980738;28;20035;-93
2022/05/18 02:20:10;;;;;;;5.35;0.98;;;11.30;99.90;;;;;;4990427;28;20031;-94
2022/05/18 02:22:36;;;;;;;3.88;0.90;;;11.30;99.90;;;;;;4978013;28;20114;-92
2022/05/18 02:25:02;;;;;;;2.63;0.80;;;11.20;99.90;;;;;;4979192;28;20027;-91
2022/05/18 02:27:29;;;;;;;3.15;0.70;;;11.20;99.90;;;;;;4978522;28;20018;-96
2022/05/18 02:29:54;;;;;;;5.15;1.10;;;11.20;99.90;;;;;;4980867;28;20030;-91
2022/05/18 02:32:20;;;;;;;3.10;0.95;;;11.20;99.90;;;;;;4979449;28;20023;-93
2022/05/18 02:34:46;;;;;;;5.03;1.00;;;11.20;99.90;;;;;;4972549;28;20027;-95
2022/05/18 02:37:11;;;;;;;4.50;1.10;;;11.10;99.90;;;;;;4975193;28;20123;-96
2022/05/18 02:39:37;;;;;;;5.15;1.30;;;11.10;99.90;;;;;;4967876;28;20038;-95
2022/05/18 02:42:03;;;;;;;3.45;1.00;;;11.10;99.90;;;;;;4966896;28;20031;-94
2022/05/18 02:44:29;;;;;;;3.17;1.10;;;11.00;99.90;;;;;;4964141;28;20031;-94
2022/05/18 02:46:59;;;;;;;6.20;1.00;;;11.00;99.90;;;;;;4965283;28;20031;-93
2022/05/18 02:49:26;;;;;;;2.85;1.38;;;10.90;99.90;;;;;;4969510;28;20062;-95
2022/05/18 02:51:51;;;;;;;6.45;1.75;;;10.90;99.90;;;;;;4973441;28;20031;-93
2022/05/18 02:57:03;;;;;;;4.22;1.30;;;10.80;99.90;;;;;;4990216;28;20077;-93
2022/05/18 02:59:29;;;;;;;4.85;0.82;;;10.70;99.90;;;;;;4976018;28;20023;-93
2022/05/18 03:01:55;;;;;;;2.33;0.95;;;10.70;99.90;;;;;;4972476;28;20046;-93
2022/05/18 03:04:22;;;;;;;6.75;1.40;;;10.70;99.90;;;;;;4975085;28;20031;-94
2022/05/18 03:06:48;;;;;;;3.75;1.15;;;10.70;99.90;;;;;;4978228;28;20034;-90
2022/05/18 03:09:14;;;;;;;3.22;0.70;;;10.70;99.90;;;;;;4978813;28;20074;-94
2022/05/18 03:11:40;;;;;;;3.35;1.17;;;10.70;99.90;;;;;;4979946;28;20037;-91
2022/05/18 03:14:07;;;;;;;3.92;1.42;;;10.60;99.90;;;;;;4979650;28;20041;-90
2022/05/18 03:16:33;;;;;;;3.65;1.13;;;10.60;99.90;;;;;;4973274;28;20027;-91
2022/05/18 03:18:59;;;;;;;10.32;1.60;;;10.60;99.90;;;;;;4975275;28;20029;-95
2022/05/18 03:24:12;;;;;;;7.18;1.83;;;10.60;99.90;;;;;;4995452;28;20542;-95
2022/05/18 03:26:39;;;;;;;8.60;1.20;;;10.60;99.90;;;;;;4979791;28;20034;-96
2022/05/18 03:29:05;;;;;;;8.35;1.75;;;10.50;99.90;;;;;;4980127;28;20082;-89
2022/05/18 03:31:31;;;;;;;7.65;1.30;;;10.60;99.90;;;;;;4976979;28;20041;-94
2022/05/18 03:34:00;;;;;;;8.07;1.58;;;10.60;99.90;;;;;;4977132;28;20015;-94
2022/05/18 03:36:26;;;;;;;5.18;1.65;;;10.60;99.90;;;;;;4977966;28;20054;-94
2022/05/18 03:38:52;;;;;;;5.70;1.00;;;10.60;99.90;;;;;;4974932;28;20051;-93
2022/05/18 03:41:21;;;;;;;4.72;1.50;;;10.60;99.90;;;;;;4980527;28;20038;-90
2022/05/18 03:43:47;;;;;;;7.40;1.23;;;10.60;99.90;;;;;;4981312;28;20030;-93
2022/05/18 03:46:13;;;;;;;6.57;1.30;;;10.60;99.90;;;;;;4976113;28;20046;-95
2022/05/18 03:48:39;;;;;;;14.27;1.75;;;10.60;99.90;;;;;;4980961;28;20048;-90
2022/05/18 03:51:07;;;;;;;6.88;1.10;;;10.60;99.90;;;;;;4980624;28;20122;-89
2022/05/18 03:53:34;;;;;;;8.02;1.65;;;10.60;99.90;;;;;;4981624;28;20019;-91
2022/05/18 03:55:59;;;;;;;6.63;1.25;;;10.60;99.90;;;;;;4981447;28;20102;-94
2022/05/18 03:58:26;;;;;;;7.70;1.27;;;10.60;99.90;;;;;;4981372;28;20019;-91
2022/05/18 04:00:54;;;;;;;6.22;1.20;;;10.60;99.90;;;;;;4979302;28;20039;-95
2022/05/18 04:03:24;;;;;;;8.43;1.35;;;10.60;99.90;;;;;;4977813;28;20030;-94
2022/05/18 04:05:50;;;;;;;7.00;1.40;;;10.60;99.90;;;;;;4972739;28;20011;-94
2022/05/18 04:08:16;;;;;;;8.35;1.38;;;10.60;99.90;;;;;;4971614;28;20277;-93
2022/05/18 04:10:42;;;;;;;7.93;1.33;;;10.60;99.90;;;;;;4980529;28;20038;-91
2022/05/18 04:13:13;;;;;;;8.27;1.92;;;10.50;99.90;;;;;;4980328;28;20023;-93
2022/05/18 04:15:39;;;;;;;7.45;1.50;;;10.50;99.90;;;;;;4977411;28;20030;-91
2022/05/18 04:18:05;;;;;;;6.10;1.60;;;10.50;99.90;;;;;;4980028;28;20062;-93
2022/05/18 04:20:30;;;;;;;6.15;1.17;;;10.50;99.90;;;;;;4980407;28;20039;-91
2022/05/18 04:22:56;;;;;;;5.90;1.70;;;10.60;99.90;;;;;;4980415;28;20034;-94
2022/05/18 04:25:25;;;;;;;8.10;1.38;;;10.50;99.90;;;;;;4981398;28;20084;-90
2022/05/18 04:27:51;;;;;;;5.18;1.52;;;10.60;99.90;;;;;;4981046;28;20011;-91
2022/05/18 04:30:19;;;;;;;6.60;1.70;;;10.60;99.90;;;;;;4981197;28;20015;-93
2022/05/18 04:32:45;;;;;;;4.70;1.35;;;10.60;99.90;;;;;;4980946;28;20019;-89
2022/05/18 04:35:13;;;;;;;9.23;1.73;;;10.70;99.90;;;;;;4981175;28;20046;-91
2022/05/18 04:37:40;;;;;;;7.68;1.65;;;10.70;99.90;;;;;;4981089;28;20062;-91
2022/05/18 04:40:07;;;;;;;5.18;1.30;;;10.70;99.90;;;;;;4979682;28;20057;-91
2022/05/18 04:42:33;;;;;;;7.25;1.80;;;10.70;99.90;;;;;;4980508;28;20086;-93
2022/05/18 04:44:59;;;;;;;6.15;1.45;;;10.70;99.90;;;;;;4975342;28;20015;-93
2022/05/18 04:47:25;;;;;;;11.82;1.90;;;10.70;99.90;;;;;;4969676;28;20058;-94
2022/05/18 04:49:52;;;;;;;7.05;1.65;;;10.70;99.90;;;;;;4971935;28;20106;-90
2022/05/18 04:52:19;;;;;;;11.52;2.40;;;10.70;99.90;;;;;;4980924;28;20082;-92
2022/05/18 04:54:45;;;;;;;6.43;1.85;;;10.70;99.90;;;;;;4980394;28;20061;-90
2022/05/18 04:57:12;;;;;;;9.60;1.50;;;10.70;99.90;;;;;;4980544;28;20039;-90
2022/05/18 04:59:38;;;;;;;10.07;1.90;;;10.60;99.90;;;;;;4978503;28;20041;-95
2022/05/18 05:02:04;;;;;;;6.25;1.73;;;10.60;99.90;;;;;;4973562;28;20042;-95
2022/05/18 05:04:31;;;;;;;9.88;1.63;;;10.60;99.90;;;;;;4975166;28;20038;-93
2022/05/18 05:06:56;;;;;;;7.00;1.60;;;10.60;99.90;;;;;;4978558;28;20050;-92
2022/05/18 05:09:24;;;;;;;9.50;1.95;;;10.70;99.90;;;;;;4977279;28;20039;-93
2022/05/18 05:11:50;;;;;;;11.30;2.05;;;10.70;99.90;;;;;;4978518;28;20030;-94
2022/05/18 05:14:16;;;;;;;9.75;1.70;;;10.60;99.90;;;;;;4978220;28;20065;-91
2022/05/18 05:16:42;;;;;;;9.45;1.98;;;10.60;99.90;;;;;;4978903;28;20027;-89
2022/05/18 05:19:08;;;;;;;7.47;1.50;;;10.70;99.90;;;;;;4979115;28;20039;-92
2022/05/18 05:21:35;;;;;;;4.78;1.77;;;10.70;99.90;;;;;;4977840;28;20080;-91
2022/05/18 05:24:04;;;;;;;7.38;1.70;;;10.70;99.90;;;;;;4977805;28;20023;-95
2022/05/18 05:26:29;;;;;;;7.97;1.63;;;10.70;99.90;;;;;;4981556;28;20085;-88
2022/05/18 05:28:55;;;;;;;8.50;1.95;;;10.70;99.90;;;;;;4981315;28;20030;-88
2022/05/18 05:31:21;;;;;;;13.48;1.90;;;10.70;99.90;;;;;;4980590;28;20047;-87
2022/05/18 05:33:47;;;;;;;6.57;1.70;;;10.60;99.90;;;;;;4980617;28;20019;-89
2022/05/18 05:36:12;;;;;;;11.38;2.13;;;10.60;99.90;;;;;;4980747;28;20027;-90
2022/05/18 05:38:38;;;;;;;8.82;1.95;;;10.60;99.90;;;;;;4981543;28;20102;-94
2022/05/18 05:41:04;;;;;;;9.93;2.20;;;10.60;99.90;;;;;;4981314;28;20031;-94
2022/05/18 05:43:31;;;;;;;13.25;2.22;;;10.70;99.90;;;;;;4978017;28;20033;-91
2022/05/18 05:46:05;;;;;;;11.88;1.90;;;10.70;99.90;;;;;;4975050;28;20030;-93
2022/05/18 05:48:32;;;;;;;8.65;1.83;;;10.70;99.90;;;;;;4973474;28;20027;-96
2022/05/18 05:50:58;;;;;;;10.73;2.67;;;10.80;99.90;;;;;;4975478;28;20030;-95
2022/05/18 05:53:24;;;;;;;11.65;2.40;;;10.80;99.90;;;;;;4974728;28;20022;-95
2022/05/18 05:55:53;;;;;;;7.20;1.70;;;10.80;99.90;;;;;;4973314;28;20082;-95
2022/05/18 05:58:20;;;;;;;10.77;2.30;;;10.90;99.90;;;;;;4992617;28;20058;-93
2022/05/18 06:00:46;;;;;;;14.52;2.60;;;10.90;99.90;;;;;;4982483;28;20030;-91
2022/05/18 06:03:16;;;;;;;10.48;2.33;;;11.00;99.90;;;;;;4984083;28;20023;-92
2022/05/18 06:05:43;;;;;;;13.43;2.10;;;11.00;99.90;;;;;;4983928;28;20035;-90
2022/05/18 06:08:09;;;;;;;9.00;3.17;;;11.00;99.90;;;;;;4991095;28;20035;-89
2022/05/18 06:10:35;;;;;;;10.55;2.15;;;11.00;99.90;;;;;;4991016;28;20115;-90
2022/05/18 06:13:09;;;;;;;6.20;2.00;;;11.10;99.90;;;;;;4994834;28;20086;-89
2022/05/18 06:15:35;;;;;;;12.45;3.00;;;11.20;99.90;;;;;;4991899;28;20026;-93
2022/05/18 06:18:00;;;;;;;9.57;2.60;;;11.30;99.90;;;;;;4982644;28;20081;-95
2022/05/18 06:20:26;;;;;;;14.98;3.50;;;11.30;99.90;;;;;;4978796;28;20333;-96
2022/05/18 06:22:52;;;;;;;7.93;1.83;;;11.40;99.90;;;;;;4972054;28;20049;-94
2022/05/18 06:25:18;;;;;;;14.32;2.20;;;11.40;99.90;;;;;;4973447;28;20027;-94
2022/05/18 06:27:44;;;;;;;11.68;2.75;;;11.50;99.90;;;;;;4974327;28;20057;-95
2022/05/18 06:30:13;;;;;;;10.80;2.10;;;11.60;99.90;;;;;;4970978;28;20050;-95
2022/05/18 06:32:38;;;;;;;9.38;2.33;;;11.70;99.90;;;;;;4990037;28;20019;-96
2022/05/18 06:35:05;;;;;;;19.65;2.75;;;11.70;99.90;;;;;;4998424;28;20032;-96
2022/05/18 06:37:31;;;;;;;12.10;2.85;;;11.80;99.90;;;;;;4991552;28;20029;-93
2022/05/18 06:39:57;;;;;;;11.80;2.25;;;11.80;99.90;;;;;;4992124;28;20026;-94
2022/05/18 06:42:23;;;;;;;20.13;2.78;;;11.90;99.90;;;;;;4988090;28;20077;-93
2022/05/18 06:44:50;;;;;;;17.58;2.47;;;12.00;99.90;;;;;;4983872;28;20027;-94
2022/05/18 06:47:31;;;;;;;7.72;1.75;;;12.00;99.90;;;;;;4982382;28;20019;-91
2022/05/18 06:49:57;;;;;;;16.77;2.60;;;12.10;99.90;;;;;;4981778;28;20030;-90
2022/05/18 06:52:29;;;;;;;15.93;2.50;;;12.20;99.90;;;;;;4983889;28;20027;-95
2022/05/18 06:54:54;;;;;;;10.63;2.10;;;12.20;99.90;;;;;;4999040;28;20041;-94
2022/05/18 06:57:20;;;;;;;12.73;3.03;;;12.30;99.90;;;;;;4998391;28;20148;-95
2022/05/18 06:59:46;;;;;;;11.70;2.28;;;12.30;99.90;;;;;;4992470;28;20121;-90
2022/05/18 07:02:14;;;;;;;9.57;2.40;;;12.50;99.90;;;;;;4989397;28;20058;-95
2022/05/18 07:04:40;;;;;;;15.05;2.63;;;12.60;99.90;;;;;;4986283;28;20130;-94
2022/05/18 07:07:06;;;;;;;15.80;3.72;;;12.60;99.90;;;;;;4981869;28;20468;-93
2022/05/18 07:09:32;;;;;;;14.88;4.00;;;12.70;99.90;;;;;;4988890;28;20098;-94
2022/05/18 07:11:58;;;;;;;9.32;2.15;;;12.80;99.90;;;;;;4971461;28;20073;-96
2022/05/18 07:14:27;;;;;;;13.65;2.33;;;12.90;99.90;;;;;;4989748;28;20049;-95
2022/05/18 07:19:41;;;;;;;10.57;2.78;;;13.10;99.90;;;;;;5547556;23;20045;-95
2022/05/18 07:22:06;;;;;;;10.20;1.98;;;13.30;99.90;;;;;;5016997;28;20030;-95
2022/05/18 07:24:32;;;;;;;8.02;2.60;;;13.40;99.90;;;;;;5004342;28;20026;-90
2022/05/18 07:27:01;;;;;;;15.40;3.80;;;13.50;99.90;;;;;;5017841;28;20044;-92
2022/05/18 07:29:29;;;;;;;13.38;2.85;;;13.60;99.90;;;;;;5017861;28;20032;-94
2022/05/18 07:32:13;;;;;;;15.48;1.75;;;13.60;99.90;;;;;;5045363;28;20032;-94
2022/05/18 07:34:47;;;;;;;13.75;2.47;;;13.70;99.90;;;;;;5025133;28;20032;-93
2022/05/18 07:37:16;;;;;;;16.92;2.10;;;13.80;99.90;;;;;;5012641;28;20030;-94
2022/05/18 07:39:43;;;;;;;17.05;2.28;;;13.90;99.90;;;;;;5013295;28;20475;-93
2022/05/18 07:42:09;;;;;;;22.15;2.60;;;13.90;99.90;;;;;;5008366;28;20094;-94
2022/05/18 07:44:37;;;;;;;15.30;2.60;;;14.00;99.90;;;;;;5016837;28;20029;-93
2022/05/18 07:47:05;;;;;;;11.27;1.83;;;14.10;99.90;;;;;;5012768;28;20046;-95
2022/05/18 07:49:39;;;;;;;9.73;1.98;;;14.20;99.90;;;;;;5026039;28;20032;-94
2022/05/18 07:52:06;;;;;;;10.35;1.90;;;14.30;99.90;;;;;;5012906;28;20039;-95
2022/05/18 07:54:36;;;;;;;10.10;2.03;;;14.40;99.90;;;;;;5013038;28;20017;-95
2022/05/18 07:57:07;;;;;;;16.52;2.20;;;14.40;99.90;;;;;;5040070;28;20044;-94
2022/05/18 07:59:33;;;;;;;13.57;2.00;;;14.40;99.90;;;;;;5003381;28;20029;-93
2022/05/18 08:01:58;;;;;;;10.68;1.95;;;14.40;99.90;;;;;;5004134;28;20036;-96
2022/05/18 08:04:27;;;;;;;11.40;1.77;;;14.30;99.90;;;;;;5018585;28;20029;-94
2022/05/18 08:06:55;;;;;;;;;;;14.30;99.90;;;;;;5034993;28;20029;-92
2022/05/18 08:09:23;;;;;;;11.05;2.10;;;14.30;99.90;;;;;;5017588;28;19920;-95
2022/05/18 08:17:19;;;;;;;13.10;2.92;;;14.40;99.90;;;;;;5035459;28;20060;-94
2022/05/18 08:19:46;;;;;;;12.80;2.25;;;14.40;99.90;;;;;;5017094;28;20122;-93
2022/05/18 08:22:14;;;;;;;11.20;1.85;;;14.50;99.90;;;;;;5017909;28;20051;-93
2022/05/18 08:24:46;;;;;;;10.30;2.03;;;14.60;99.90;;;;;;5016962;28;20057;-94
2022/05/18 08:27:16;;;;;;;13.45;2.08;;;14.80;99.90;;;;;;5016747;28;20048;-94
2022/05/18 08:29:42;;;;;;;14.50;3.05;;;14.90;99.90;;;;;;5015540;28;20067;-93
2022/05/18 08:32:07;;;;;;;14.65;1.85;;;15.10;99.90;;;;;;5017674;28;20021;-96
2022/05/18 08:34:33;;;;;;;15.55;2.47;;;15.20;99.90;;;;;;5016323;28;20108;-95
2022/05/18 08:37:00;;;;;;;19.00;2.65;;;15.20;99.90;;;;;;5015849;28;20112;-96
2022/05/18 08:39:29;;;;;;;17.23;2.35;;;15.30;99.90;;;;;;5015955;28;20152;-93
2022/05/18 08:41:56;;;;;;;11.88;2.22;;;15.40;99.90;;;;;;5019976;28;20025;-94
2022/05/18 08:44:31;;;;;;;17.67;2.95;;;15.50;99.90;;;;;;5017215;28;20052;-95
2022/05/18 08:47:11;;;;;;;10.13;2.40;;;15.60;99.90;;;;;;5017323;28;20024;-94
2022/05/18 08:49:45;;;;;;;15.65;2.78;;;15.80;99.90;;;;;;5017429;28;20037;-93
2022/05/18 08:52:40;;;;;;;11.35;1.95;;;16.00;99.70;;;;;;5020888;28;20033;-92
2022/05/18 08:55:33;;;;;;;9.05;2.10;;;16.20;98.70;;;;;;5020817;28;20372;-95
2022/05/18 08:58:00;;;;;;;14.73;1.92;;;16.30;96.80;;;;;;5032337;28;20021;-93
2022/05/18 09:00:41;;;;;;;12.40;2.55;;;16.40;95.80;;;;;;5035665;28;20005;-93
2022/05/18 09:03:17;;;;;;;12.43;2.20;;;16.40;94.80;;;;;;5033125;28;20025;-93
2022/05/18 09:05:48;;;;;;;14.18;3.72;;;16.50;94.40;;;;;;5026403;28;20026;-93
2022/05/18 09:08:25;;;;;;;10.48;2.10;;;16.40;93.60;;;;;;5016765;28;20034;-94
2022/05/18 09:11:04;;;;;;;10.85;2.15;;;16.50;93.70;;;;;;5015558;28;20038;-95
2022/05/18 09:13:31;;;;;;;12.88;2.30;;;16.50;93.70;;;;;;5025405;28;20395;-94
2022/05/18 09:16:09;;;;;;;11.63;1.98;;;16.70;93.80;;;;;;5023822;28;20105;-94
2022/05/18 09:18:52;;;;;;;10.10;1.80;;;16.90;93.50;;;;;;5024104;28;20022;-92
2022/05/18 09:21:32;;;;;;;10.82;2.17;;;17.00;92.60;;;;;;5024485;28;20073;-92
2022/05/18 09:24:06;;;;;;;7.50;1.77;;;16.90;91.00;;;;;;5023143;28;20037;-93
2022/05/18 09:27:01;;;;;;;10.57;2.15;;;16.90;90.10;;;;;;5022687;28;20280;-93
2022/05/18 09:29:54;;;;;;;14.02;1.98;;;16.90;89.80;;;;;;5008869;28;20064;-92
2022/05/18 09:32:26;;;;;;;10.80;1.90;;;17.00;89.90;;;;;;5027642;28;20178;-95
2022/05/18 09:35:01;;;;;;;8.70;2.35;;;17.10;90.10;;;;;;5028287;28;20121;-92
2022/05/18 09:37:41;;;;;;;10.50;2.05;;;17.20;90.20;;;;;;5038688;28;20028;-93
2022/05/18 09:40:24;;;;;;;;;;;17.30;89.80;;;;;;5030694;28;20045;-94
2022/05/18 09:43:15;;;;;;;9.50;2.00;;;17.30;89.60;;;;;;5030033;28;19984;-93
2022/05/18 09:45:47;;;;;;;6.47;1.60;;;17.40;90.00;;;;;;5009279;28;20105;-94
2022/05/18 09:48:16;;;;;;;10.32;2.40;;;17.40;89.00;;;;;;5024934;28;20025;-95
2022/05/18 09:50:45;;;;;;;8.93;1.48;;;17.40;88.90;;;;;;5021542;28;20045;-94
2022/05/18 09:53:12;;;;;;;8.43;2.05;;;17.30;87.80;;;;;;5039061;28;20036;-93
2022/05/18 09:55:38;;;;;;;10.27;1.75;;;17.30;86.50;;;;;;5021513;28;20030;-92
2022/05/18 09:58:13;;;;;;;5.57;1.58;;;17.30;86.70;;;;;;5019510;28;20037;-94
2022/05/18 10:00:40;;;;;;;7.85;1.75;;;17.40;87.10;;;;;;5020788;28;20072;-93
2022/05/18 10:08:53;;;;;;;8.55;1.95;;;18.20;86.70;;;;;;5038543;28;20540;-94
2022/05/18 10:11:26;;;;;;;7.68;1.67;;;18.30;85.50;;;;;;5020161;28;20494;-94
2022/05/18 10:14:11;;;;;;;12.25;1.95;;;18.30;84.90;;;;;;5022133;28;20393;-93
2022/05/18 10:16:46;;;;;;;6.93;2.20;;;18.40;84.00;;;;;;5021314;28;20030;-94
2022/05/18 10:19:30;;;;;;;6.63;1.80;;;18.40;82.90;;;;;;5018463;28;20060;-94
2022/05/18 10:22:00;;;;;;;10.55;1.60;;;18.40;82.50;;;;;;5019619;28;20065;-93
2022/05/18 10:24:41;;;;;;;9.15;1.77;;;18.60;82.50;;;;;;5020603;28;20021;-91
2022/05/18 10:27:18;;;;;;;9.07;1.98;;;18.60;80.10;;;;;;5002087;28;20479;-93
2022/05/18 10:29:51;;;;;;;7.50;1.73;;;18.60;80.10;;;;;;5017739;28;20033;-95
2022/05/18 10:32:23;;;;;;;9.05;2.08;;;18.80;80.70;;;;;;5017093;28;20048;-95
2022/05/18 10:34:54;;;;;;;10.57;1.50;;;18.90;80.70;;;;;;4989437;28;20018;-94
2022/05/18 10:37:38;;;;;;;8.55;1.98;;;19.00;80.60;;;;;;5035388;28;20059;-95
2022/05/18 10:40:17;;;;;;;6.57;1.55;;;19.00;79.30;;;;;;5042402;28;20034;-94
2022/05/18 10:42:52;;;;;;;7.97;2.17;;;18.90;77.70;;;;;;5021229;28;20021;-95
2022/05/18 10:45:21;;;;;;;13.40;3.05;;;18.90;78.10;;;;;;5018984;28;20025;-93
2022/05/18 10:47:49;;;;;;;9.05;1.67;;;19.00;78.40;;;;;;5036915;28;20502;-94
2022/05/18 10:50:20;;;;;;;15.57;3.30;;;19.00;79.00;;;;;;5018113;28;20036;-92
2022/05/18 10:52:47;;;;;;;10.38;2.00;;;19.00;79.10;;;;;;5019277;28;20095;-94
2022/05/18 10:55:19;;;;;;;7.75;1.58;;;19.10;78.40;;;;;;5018719;28;20128;-93
2022/05/18 10:58:24;;;;;;;6.68;1.52;;;19.10;77.50;;;;;;5018596;28;20029;-93
2022/05/18 11:00:59;;;;;;;8.23;1.77;;;19.30;76.60;;;;;;4971260;28;20038;-96
2022/05/18 11:04:01;;;;;;;6.22;1.52;;;19.50;75.80;;;;;;5019295;28;20049;-93
2022/05/18 11:06:33;;;;;;;6.85;1.77;;;19.30;73.90;;;;;;5007101;28;20490;-92
2022/05/18 11:09:06;;;;;;;8.32;2.13;;;19.30;74.10;;;;;;5032448;28;20041;-94
2022/05/18 11:11:44;;;;;;;7.57;1.75;;;19.40;74.20;;;;;;5020189;28;20097;-95
2022/05/18 11:14:34;;;;;;;7.78;1.90;;;19.40;74.30;;;;;;5018939;28;20021;-94
2022/05/18 11:17:25;;;;;;;13.10;2.92;;;19.40;74.60;;;;;;5019384;28;20017;-90
2022/05/18 11:20:09;;;;;;;13.43;2.13;;;19.30;75.00;;;;;;5022974;28;20164;-95
2022/05/18 11:22:47;;;;;;;14.50;2.83;;;19.30;75.50;;;;;;5018196;28;20039;-93
2022/05/18 11:25:24;;;;;;;10.32;2.75;;;19.40;75.90;;;;;;5018195;28;20041;-93
2022/05/18 11:27:58;;;;;;;6.20;1.77;;;19.50;75.80;;;;;;5019767;28;20029;-95
2022/05/18 11:31:20;;;;;;;10.07;2.38;;;19.70;75.30;;;;;;5044795;28;20040;-95
2022/05/18 11:34:07;;;;;;;7.93;1.70;;;19.80;73.40;;;;;;4942833;29;20130;-95
2022/05/18 11:37:00;;;;;;;7.18;1.83;;;19.80;71.60;;;;;;4957808;28;20057;-96
2022/05/18 11:39:45;;;;;;;12.52;2.47;;;19.80;71.40;;;;;;4941130;29;20532;-96
2022/05/18 11:42:41;;;;;;;6.70;2.38;;;20.00;71.40;;;;;;4940417;29;20564;-95
2022/05/18 11:45:20;;;;;;;7.72;2.10;;;20.10;71.10;;;;;;4957670;29;20050;-94
2022/05/18 11:48:16;;;;;;;8.00;2.17;;;20.20;70.30;;;;;;4962275;29;20038;-94
2022/05/18 11:50:53;;;;;;;6.85;2.45;;;20.30;69.60;;;;;;4953003;29;20039;-93
2022/05/18 12:06:05;;;;;;;9.13;3.35;;;20.90;69.60;;;;;;5425349;23;20053;-94
2022/05/18 12:08:56;;;;;;;14.85;3.15;;;21.00;70.30;;;;;;5038342;28;20032;-91
2022/05/18 12:11:43;;;;;;;9.52;3.08;;;21.10;70.30;;;;;;5008354;28;20026;-95
2022/05/18 12:14:25;;;;;;;12.88;2.97;;;21.10;70.00;;;;;;5008899;28;20026;-96
2022/05/18 12:16:56;;;;;;;8.13;2.85;;;21.10;70.30;;;;;;5018556;28;20017;-95
2022/05/18 12:19:36;;;;;;;;;;;21.30;70.10;;;;;;5018039;28;20581;-94
2022/05/18 12:22:20;;;;;;;7.38;2.55;;;21.40;68.10;;;;;;5008881;28;19959;-94
2022/05/18 12:24:53;;;;;;;8.43;3.17;;;21.30;67.80;;;;;;5012546;28;20026;-94
2022/05/18 12:27:42;;;;;;;11.13;2.75;;;21.30;67.50;;;;;;5017036;28;20075;-92
2022/05/18 12:30:13;;;;;;;9.52;3.03;;;21.30;66.70;;;;;;5017899;28;20037;-94
2022/05/18 12:32:40;;;;;;;9.30;2.83;;;21.10;66.80;;;;;;5017276;28;20072;-95
2022/05/18 12:35:14;;;;;;;7.53;2.92;;;21.00;67.00;;;;;;5009248;28;20025;-94
2022/05/18 12:38:20;;;;;;;8.13;2.60;;;21.00;67.80;;;;;;5015258;28;20022;-95
2022/05/18 12:40:54;;;;;;;8.10;2.92;;;21.10;68.30;;;;;;5035253;23;20091;-95
2022/05/18 12:43:40;;;;;;;10.48;2.65;;;21.20;67.80;;;;;;5013175;28;20060;-95
2022/05/18 12:46:16;;;;;;;9.32;2.40;;;21.30;67.00;;;;;;5009672;28;20025;-95
2022/05/18 12:48:59;;;;;;;6.25;2.08;;;21.40;66.60;;;;;;5023680;28;20026;-95
2022/05/18 12:51:28;;;;;;;7.13;1.90;;;21.40;66.20;;;;;;5044800;28;20061;-95
2022/05/18 12:54:21;;;;;;;13.27;2.50;;;21.40;65.20;;;;;;5025765;28;20017;-94
2022/05/18 12:56:51;;;;;;;6.35;2.25;;;21.30;65.50;;;;;;5024638;28;20038;-95
2022/05/18 12:59:19;;;;;;;7.65;2.45;;;21.30;65.80;;;;;;5023793;28;20033;-95
2022/05/18 13:02:00;;;;;;;12.00;2.00;;;21.40;66.10;;;;;;5025007;28;20025;-93
2022/05/18 13:04:25;;;;;;;9.93;1.92;;;21.40;66.10;;;;;;5024752;28;20025;-93
2022/05/18 13:07:00;;;;;;;9.35;2.45;;;21.40;66.10;;;;;;5025233;28;20033;-92
2022/05/18 13:09:38;;;;;;;10.05;1.90;;;21.40;65.90;;;;;;5025870;28;20040;-96
2022/05/18 13:12:22;;;;;;;10.15;2.10;;;21.30;66.40;;;;;;5031018;28;20041;-93
2022/05/18 13:15:25;;;;;;;7.97;2.53;;;21.30;66.70;;;;;;5034334;28;20041;-95
2022/05/18 13:17:59;;;;;;;7.38;2.10;;;21.20;67.00;;;;;;5034886;28;20029;-95
2022/05/18 13:20:25;;;;;;;12.05;2.95;;;21.10;67.40;;;;;;5039285;28;20009;-94
2022/05/18 13:23:24;;;;;;;12.23;2.33;;;21.10;68.10;;;;;;5042381;28;20108;-96
2022/05/18 13:25:58;;;;;;;6.80;1.70;;;21.10;68.30;;;;;;5041913;28;20049;-96
2022/05/18 13:28:27;;;;;;;9.88;2.00;;;21.10;68.60;;;;;;5042648;28;20025;-94
2022/05/18 13:30:56;;;;;;;13.35;1.80;;;21.20;68.50;;;;;;5042742;28;20034;-96
2022/05/18 13:33:24;;;;;;;11.32;1.85;;;21.10;68.60;;;;;;5043143;28;20025;-92
2022/05/18 13:35:50;;;;;;;6.90;1.52;;;21.00;68.80;;;;;;5042814;28;20036;-96